KIMT/IMT METAR and TAF weather

Enter ICAO airport designator
Station Type Date Time Source
KIMT METAR 2019/11/18 13:54 UTC NOAA

KIMT 181354Z AUTO 30004KT 10SM OVC011 01/M02 A2974 RMK AO2 SLP086 T00111017


Station Type Date Time Source
KIMT Decoded METAR 2019/11/18 13:54 UTC NOAA

IRON MOUNTAIN FORD AIRPORT, MI, United States (KIMT) 45-49N 88-07W 349M
Nov 18, 2019 - 08:54 AM EST / 2019.11.18 1354 UTC
Wind: from the WNW (300 degrees) at 5 MPH (4 KT):0
Visibility: 10 mile(s):0
Sky conditions: overcast
Temperature: 34.0 F (1.1 C)
Windchill: 30 F (-1 C):1
Dew Point: 28.9 F (-1.7 C)
Relative Humidity: 81%
Pressure (altimeter): 29.74 in. Hg (1007 hPa)
ob: KIMT 181354Z AUTO 30004KT 10SM OVC011 01/M02 A2974 RMK AO2 SLP086 T00111017
cycle: 14

Station Type Date Time Source
KIMT TAF UTC NOAA

Error!

Example: see airport list